createdAt,value
2018-07-19T00:02:18.363Z,101320.30
2018-07-19T00:04:46.580Z,101323.67
2018-07-19T00:07:14.792Z,101324.87
2018-07-19T00:09:42.996Z,101322.05
2018-07-19T00:12:11.218Z,101327.09
2018-07-19T00:14:39.448Z,101319.86
2018-07-19T00:17:08.057Z,101321.35
2018-07-19T00:19:36.295Z,101320.98
2018-07-19T00:22:04.520Z,101319.31
2018-07-19T00:24:32.740Z,101319.82
2018-07-19T00:27:00.965Z,101321.35
2018-07-19T00:29:29.182Z,101325.42
2018-07-19T00:31:57.403Z,101328.80
2018-07-19T00:34:25.613Z,101320.44
2018-07-19T00:36:53.836Z,101325.49
2018-07-19T00:39:22.077Z,101328.87
2018-07-19T00:41:50.281Z,101323.20
2018-07-19T00:44:18.526Z,101325.09
2018-07-19T00:46:47.032Z,101323.93
2018-07-19T00:49:15.288Z,101324.98
2018-07-19T00:51:43.513Z,101316.26
2018-07-19T00:54:11.724Z,101316.62
2018-07-19T00:56:39.981Z,101313.13
2018-07-19T00:59:08.184Z,101314.63
2018-07-19T01:01:36.472Z,101312.27
2018-07-19T01:04:04.712Z,101309.25
2018-07-19T01:06:32.929Z,101306.41
2018-07-19T01:09:01.138Z,101310.48
2018-07-19T01:11:29.344Z,101309.02
2018-07-19T01:13:57.572Z,101314.19
2018-07-19T01:16:25.789Z,101311.64
2018-07-19T01:18:54.014Z,101310.63
2018-07-19T01:21:22.265Z,101313.31
2018-07-19T01:23:50.476Z,101307.94
2018-07-19T01:26:18.698Z,101310.98
2018-07-19T01:28:46.912Z,101316.42
2018-07-19T01:31:15.144Z,101317.30
2018-07-19T01:33:43.368Z,101317.30
2018-07-19T01:36:11.589Z,101319.66
2018-07-19T01:38:39.827Z,101315.27
2018-07-19T01:41:19.289Z,101316.09
2018-07-19T01:43:47.541Z,101319.47
2018-07-19T01:46:15.752Z,101316.97
2018-07-19T01:48:43.970Z,101323.17
2018-07-19T01:51:12.184Z,101323.33
2018-07-19T01:53:40.428Z,101331.89
2018-07-19T01:56:08.637Z,101342.47
2018-07-19T01:58:36.854Z,101342.64
2018-07-19T02:01:05.087Z,101339.30
2018-07-19T02:03:33.309Z,101329.27
2018-07-19T02:06:01.517Z,101338.20
2018-07-19T02:08:29.749Z,101334.02
2018-07-19T02:10:57.976Z,101338.41
2018-07-19T02:13:26.173Z,101334.40
2018-07-19T02:15:54.656Z,101333.92
2018-07-19T02:18:22.852Z,101332.81
2018-07-19T02:20:51.064Z,101337.88
2018-07-19T02:23:19.281Z,101334.89
2018-07-19T02:25:47.488Z,101330.92
2018-07-19T02:28:15.705Z,101338.66
2018-07-19T02:30:43.926Z,101337.33
2018-07-19T02:33:12.149Z,101331.80
2018-07-19T02:35:40.348Z,101335.67
2018-07-19T02:38:08.561Z,101338.73
2018-07-19T02:40:36.780Z,101333.06
2018-07-19T02:43:05.057Z,101328.05
2018-07-19T02:45:33.273Z,101330.55
2018-07-19T02:48:01.489Z,101333.72
2018-07-19T02:50:29.720Z,101328.00
2018-07-19T02:52:57.927Z,101327.83
2018-07-19T02:55:26.141Z,101327.11
2018-07-19T02:57:54.376Z,101325.27
2018-07-19T03:00:22.620Z,101322.91
2018-07-19T03:02:50.829Z,101329.29
2018-07-19T03:05:19.056Z,101327.28
2018-07-19T03:07:47.316Z,101325.64
2018-07-19T03:10:15.504Z,101324.48
2018-07-19T03:12:43.734Z,101328.86
2018-07-19T03:15:11.949Z,101338.76
2018-07-19T03:17:40.162Z,101336.75
2018-07-19T03:20:08.370Z,101327.20
2018-07-19T03:22:36.617Z,101336.83
2018-07-19T03:25:04.861Z,101340.37
2018-07-19T03:27:33.166Z,101334.69
2018-07-19T03:30:01.361Z,101338.05
2018-07-19T03:32:29.580Z,101333.53
2018-07-19T03:34:57.789Z,101331.73
2018-07-19T03:37:26.013Z,101336.58
2018-07-19T03:39:54.232Z,101333.91
2018-07-19T03:42:22.432Z,101333.58
2018-07-19T03:44:50.652Z,101330.23
2018-07-19T03:47:18.853Z,101331.95
2018-07-19T03:49:47.084Z,101328.78
2018-07-19T03:52:16.200Z,101326.27
2018-07-19T03:54:44.453Z,101327.44
2018-07-19T03:57:12.664Z,101328.94
2018-07-19T03:59:40.876Z,101332.91
2018-07-19T04:02:09.112Z,101337.94
2018-07-19T04:04:37.362Z,101337.26
2018-07-19T04:07:05.992Z,101336.58
2018-07-19T04:09:34.193Z,101336.91
2018-07-19T04:12:02.413Z,101334.56
2018-07-19T04:14:30.617Z,101330.20
2018-07-19T04:16:58.887Z,101327.03
2018-07-19T04:19:27.049Z,101326.20
2018-07-19T04:21:55.270Z,101330.61
2018-07-19T04:24:23.485Z,101329.28
2018-07-19T04:26:51.856Z,101330.29
2018-07-19T04:29:21.516Z,101332.63
2018-07-19T04:31:49.729Z,101331.96
2018-07-19T04:34:17.989Z,101331.30
2018-07-19T04:36:46.207Z,101329.30
2018-07-19T04:39:14.433Z,101330.30
2018-07-19T04:41:42.645Z,101326.78
2018-07-19T04:44:10.872Z,101333.33
2018-07-19T04:46:39.108Z,101339.02
2018-07-19T04:49:07.353Z,101338.19
2018-07-19T04:51:35.576Z,101329.97
2018-07-19T04:54:03.821Z,101335.00
2018-07-19T04:56:32.100Z,101333.66
2018-07-19T04:59:00.341Z,101333.66
2018-07-19T05:01:28.565Z,101338.86
2018-07-19T05:03:56.821Z,101344.38
2018-07-19T05:06:25.042Z,101347.56
2018-07-19T05:08:53.248Z,101348.41
2018-07-19T05:11:21.456Z,101344.38
2018-07-19T05:13:49.688Z,101346.89
2018-07-19T05:16:17.913Z,101343.03
2018-07-19T05:18:46.136Z,101351.08
2018-07-19T05:21:14.356Z,101344.70
2018-07-19T05:23:43.420Z,101344.02
2018-07-19T05:26:11.691Z,101347.17
2018-07-19T05:28:39.908Z,101346.82
2018-07-19T05:31:08.148Z,101349.33
2018-07-19T05:33:36.388Z,101343.62
2018-07-19T05:36:04.617Z,101345.66
2018-07-19T05:38:32.849Z,101346.30
2018-07-19T05:41:01.073Z,101350.66
2018-07-19T05:43:29.288Z,101354.04
2018-07-19T05:45:57.561Z,101351.36
2018-07-19T05:48:25.774Z,101351.69
2018-07-19T05:50:54.029Z,101346.66
2018-07-19T05:53:22.299Z,101345.61
2018-07-19T05:55:50.500Z,101347.95
2018-07-19T05:58:18.998Z,101353.80
2018-07-19T06:00:47.208Z,101348.42
2018-07-19T06:03:15.468Z,101349.59
2018-07-19T06:05:43.850Z,101349.36
2018-07-19T06:08:12.140Z,101358.23
2018-07-19T06:10:40.543Z,101351.68
2018-07-19T06:13:08.860Z,101353.33
2018-07-19T06:15:37.080Z,101346.74
2018-07-19T06:18:05.293Z,101348.39
2018-07-19T06:20:33.509Z,101350.05
2018-07-19T06:23:01.720Z,101350.83
2018-07-19T06:25:29.968Z,101355.34
2018-07-19T06:27:58.221Z,101357.32
2018-07-19T06:30:26.450Z,101352.22
2018-07-19T06:32:54.647Z,101353.51
2018-07-19T06:35:22.868Z,101352.80
2018-07-19T06:37:51.149Z,101348.20
2018-07-19T06:40:19.376Z,101351.63
2018-07-19T06:42:47.604Z,101354.95
2018-07-19T06:45:15.873Z,101347.50
2018-07-19T06:47:44.381Z,101366.23
2018-07-19T06:50:12.618Z,101365.37
2018-07-19T06:52:40.980Z,101362.98
2018-07-19T06:55:09.224Z,101365.11
2018-07-19T06:57:37.543Z,101364.12
2018-07-19T07:00:07.269Z,101364.51
2018-07-19T07:02:35.473Z,101364.70
2018-07-19T07:05:03.769Z,101366.05
2018-07-19T07:07:32.005Z,101364.55
2018-07-19T07:10:00.218Z,101367.57
2018-07-19T07:12:28.437Z,101370.09
2018-07-19T07:14:56.679Z,101368.58
2018-07-19T07:17:24.864Z,101369.75
2018-07-19T07:19:53.076Z,101370.74
2018-07-19T07:22:21.300Z,101366.21
2018-07-19T07:24:49.548Z,101371.41
2018-07-19T07:27:17.789Z,101376.09
2018-07-19T07:29:46.008Z,101374.03
2018-07-19T07:32:14.236Z,101381.73
2018-07-19T07:34:42.486Z,101378.53
2018-07-19T07:37:10.721Z,101380.36
2018-07-19T07:39:38.920Z,101373.59
2018-07-19T07:42:07.169Z,101375.77
2018-07-19T07:44:35.401Z,101380.62
2018-07-19T07:47:03.600Z,101381.96
2018-07-19T07:49:31.832Z,101378.75
2018-07-19T07:52:00.256Z,101383.95
2018-07-19T07:54:28.489Z,101391.59
2018-07-19T07:56:56.704Z,101393.76
2018-07-19T07:59:24.948Z,101386.53
2018-07-19T08:01:53.136Z,101385.17
2018-07-19T08:04:21.392Z,101387.86
2018-07-19T08:06:49.632Z,101388.46
2018-07-19T08:09:17.868Z,101385.06
2018-07-19T08:11:46.097Z,101388.89
2018-07-19T08:14:14.297Z,101388.36
2018-07-19T08:16:42.525Z,101386.33
2018-07-19T08:19:10.744Z,101381.61
2018-07-19T08:21:39.024Z,101381.95
2018-07-19T08:24:07.197Z,101376.39
2018-07-19T08:26:35.449Z,101381.02
2018-07-19T08:29:03.734Z,101380.48
2018-07-19T08:31:31.944Z,101376.56
2018-07-19T08:34:00.165Z,101377.70
2018-07-19T08:36:28.369Z,101373.63
2018-07-19T08:38:56.628Z,101377.27
2018-07-19T08:41:24.825Z,101371.14
2018-07-19T08:43:53.060Z,101369.77
2018-07-19T08:46:21.273Z,101368.02
2018-07-19T08:48:49.524Z,101367.25
2018-07-19T08:51:17.761Z,101367.55
2018-07-19T08:53:45.981Z,101363.69
2018-07-19T08:56:14.229Z,101366.52
2018-07-19T08:58:42.472Z,101359.58
2018-07-19T09:01:10.721Z,101356.98
2018-07-19T09:03:38.937Z,101357.92
2018-07-19T09:06:07.177Z,101361.52
2018-07-19T09:08:35.459Z,101353.77
2018-07-19T09:11:03.656Z,101346.89
2018-07-19T09:13:31.880Z,101358.82
2018-07-19T09:16:00.109Z,101351.72
2018-07-19T09:18:28.332Z,101351.07
2018-07-19T09:20:56.562Z,101346.66
2018-07-19T09:23:24.776Z,101351.41
2018-07-19T09:25:53.634Z,101344.45
2018-07-19T09:28:21.922Z,101340.98
2018-07-19T09:30:50.194Z,101339.26
2018-07-19T09:33:18.420Z,101339.53
2018-07-19T09:35:46.643Z,101344.03
2018-07-19T09:38:14.874Z,101335.58
2018-07-19T09:40:43.117Z,101343.38
2018-07-19T09:43:11.353Z,101336.59
2018-07-19T09:45:39.605Z,101336.38
2018-07-19T09:48:07.840Z,101338.61
2018-07-19T09:50:36.065Z,101333.68
2018-07-19T09:53:04.316Z,101336.61
2018-07-19T09:55:32.540Z,101327.63
2018-07-19T09:58:00.781Z,101331.42
2018-07-19T10:00:34.489Z,101335.91
2018-07-19T10:03:02.718Z,101325.45
2018-07-19T10:05:30.928Z,101327.23
2018-07-19T10:07:59.138Z,101319.02
2018-07-19T10:10:27.412Z,101324.63
2018-07-19T10:12:55.669Z,101318.28
2018-07-19T10:15:23.947Z,101323.73
2018-07-19T10:17:52.153Z,101316.73
2018-07-19T10:20:20.464Z,101314.87
2018-07-19T10:22:48.777Z,101311.18
2018-07-19T10:25:17.436Z,101313.09
2018-07-19T10:27:45.713Z,101305.19
2018-07-19T10:30:13.947Z,101301.13
2018-07-19T10:32:42.171Z,101306.86
2018-07-19T10:35:10.391Z,101297.16
2018-07-19T10:37:38.665Z,101298.98
2018-07-19T10:40:06.957Z,101297.53
2018-07-19T10:42:35.188Z,101297.53
2018-07-19T10:45:03.480Z,101293.67
2018-07-19T10:47:31.729Z,101299.82
2018-07-19T10:49:59.933Z,101292.09
2018-07-19T10:52:28.168Z,101298.54
2018-07-19T10:54:56.374Z,101297.92
2018-07-19T10:57:24.637Z,101289.99
2018-07-19T10:59:52.828Z,101287.48
2018-07-19T11:02:21.069Z,101289.95
2018-07-19T11:04:49.264Z,101284.45
2018-07-19T11:07:17.608Z,101287.56
2018-07-19T11:09:45.923Z,101279.58
2018-07-19T11:12:14.056Z,101285.58
2018-07-19T11:14:42.271Z,101279.79
2018-07-19T11:17:10.468Z,101279.19
2018-07-19T11:19:38.677Z,101276.95
2018-07-19T11:22:07.108Z,101271.20
2018-07-19T11:24:35.344Z,101268.45
2018-07-19T11:27:03.550Z,101268.61
2018-07-19T11:29:31.801Z,101256.96
2018-07-19T11:32:00.013Z,101267.47
2018-07-19T11:34:28.244Z,101270.59
2018-07-19T11:36:56.476Z,101271.30
2018-07-19T11:39:24.710Z,101272.00
2018-07-19T11:41:53.405Z,101267.89
2018-07-19T11:44:21.621Z,101264.30
2018-07-19T11:46:49.859Z,101265.14
2018-07-19T11:49:18.072Z,101257.69
2018-07-19T11:51:46.305Z,101262.35
2018-07-19T11:54:14.532Z,101259.19
2018-07-19T11:56:42.733Z,101247.77
2018-07-19T11:59:10.953Z,101255.81
2018-07-19T12:01:39.204Z,101251.30
2018-07-19T12:04:07.401Z,101243.92
2018-07-19T12:06:35.660Z,101251.28
2018-07-19T12:09:05.916Z,101244.94
2018-07-19T12:11:34.177Z,101241.25
2018-07-19T12:14:02.421Z,101230.13
2018-07-19T12:16:30.645Z,101226.17
2018-07-19T12:18:58.881Z,101234.05
2018-07-19T12:21:27.113Z,101224.09
2018-07-19T12:23:55.690Z,101224.60
2018-07-19T12:26:23.920Z,101221.81
2018-07-19T12:28:52.673Z,101222.08
2018-07-19T12:31:20.933Z,101218.08
2018-07-19T12:33:49.133Z,101225.20
2018-07-19T12:36:17.362Z,101222.94
2018-07-19T12:38:45.569Z,101224.25
2018-07-19T12:41:13.804Z,101223.81
2018-07-19T12:43:42.031Z,101223.19
2018-07-19T12:46:10.253Z,101215.31
2018-07-19T12:48:38.459Z,101212.38
2018-07-19T12:51:06.703Z,101208.88
2018-07-19T12:53:34.929Z,101206.30
2018-07-19T12:56:03.225Z,101204.04
2018-07-19T12:58:31.449Z,101207.80
2018-07-19T13:00:59.665Z,101206.80
2018-07-19T13:03:27.900Z,101204.72
2018-07-19T13:05:56.140Z,101208.75
2018-07-19T13:08:24.351Z,101206.43
2018-07-19T13:10:52.564Z,101206.29
2018-07-19T13:13:21.402Z,101200.45
2018-07-19T13:15:49.633Z,101198.91
2018-07-19T13:18:17.877Z,101203.41
2018-07-19T13:20:46.105Z,101202.89
2018-07-19T13:23:14.309Z,101193.39
2018-07-19T13:25:42.553Z,101206.41
2018-07-19T13:28:10.773Z,101201.28
2018-07-19T13:30:39.027Z,101197.39
2018-07-19T13:33:07.272Z,101198.47
2018-07-19T13:35:35.501Z,101193.84
2018-07-19T13:38:03.740Z,101194.61
2018-07-19T13:40:32.067Z,101188.54
2018-07-19T13:43:00.206Z,101194.13
2018-07-19T13:45:28.452Z,101191.14
2018-07-19T13:47:56.673Z,101186.31
2018-07-19T13:50:24.918Z,101191.69
2018-07-19T13:53:04.416Z,101186.72
2018-07-19T13:55:32.649Z,101184.53
2018-07-19T13:58:00.880Z,101188.05
2018-07-19T14:00:29.097Z,101181.03
2018-07-19T14:02:57.321Z,101180.30
2018-07-19T14:05:25.556Z,101175.84
2018-07-19T14:07:53.778Z,101167.87
2018-07-19T14:10:21.997Z,101167.95
2018-07-19T14:12:50.232Z,101165.51
2018-07-19T14:15:18.448Z,101168.78
2018-07-19T14:17:46.673Z,101158.69
2018-07-19T14:20:14.877Z,101165.47
2018-07-19T14:22:43.109Z,101166.30
2018-07-19T14:25:11.316Z,101165.30
2018-07-19T14:27:39.552Z,101159.34
2018-07-19T14:30:07.837Z,101160.67
2018-07-19T14:32:36.077Z,101162.83
2018-07-19T14:35:04.597Z,101157.23
2018-07-19T14:37:32.817Z,101154.59
2018-07-19T14:40:01.053Z,101151.11
2018-07-19T14:42:29.309Z,101156.97
2018-07-19T14:44:57.545Z,101148.75
2018-07-19T14:47:25.778Z,101149.81
2018-07-19T14:49:53.986Z,101146.79
2018-07-19T14:52:22.248Z,101146.13
2018-07-19T14:54:50.482Z,101142.66
2018-07-19T14:57:18.695Z,101142.63
2018-07-19T14:59:46.924Z,101133.45
2018-07-19T15:02:15.212Z,101131.05
2018-07-19T15:04:43.452Z,101128.91
2018-07-19T15:07:11.665Z,101129.47
2018-07-19T15:09:39.921Z,101129.95
2018-07-19T15:12:08.164Z,101123.92
2018-07-19T15:14:36.400Z,101114.98
2018-07-19T15:17:04.697Z,101117.80
2018-07-19T15:19:32.913Z,101122.09
2018-07-19T15:22:01.141Z,101115.84
2018-07-19T15:24:29.360Z,101116.48
2018-07-19T15:26:57.580Z,101102.34
2018-07-19T15:29:25.784Z,101106.88
2018-07-19T15:31:54.036Z,101102.49
2018-07-19T15:34:22.293Z,101094.75
2018-07-19T15:36:50.517Z,101096.02
2018-07-19T15:39:18.720Z,101093.59
2018-07-19T15:41:46.961Z,101093.14
2018-07-19T15:44:15.209Z,101087.70
2018-07-19T15:46:43.417Z,101085.27
2018-07-19T15:49:11.629Z,101084.19
2018-07-19T15:51:39.853Z,101081.41
2018-07-19T15:54:08.088Z,101077.23
2018-07-19T15:56:36.333Z,101074.67
2018-07-19T15:59:04.585Z,101077.11
2018-07-19T16:01:32.832Z,101075.75
2018-07-19T16:04:01.016Z,101069.14
2018-07-19T16:06:29.241Z,101072.34
2018-07-19T16:08:57.460Z,101067.11
2018-07-19T16:11:25.696Z,101067.80
2018-07-19T16:13:53.964Z,101067.55
2018-07-19T16:16:22.136Z,101067.19
2018-07-19T16:18:50.399Z,101064.10
2018-07-19T16:21:18.605Z,101057.48
2018-07-19T16:23:46.824Z,101058.06
2018-07-19T16:26:15.091Z,101055.03
2018-07-19T16:28:43.301Z,101050.15
2018-07-19T16:31:11.536Z,101051.29
2018-07-19T16:33:39.805Z,101052.66
2018-07-19T16:36:08.049Z,101054.09
2018-07-19T16:38:36.284Z,101048.80
2018-07-19T16:41:04.506Z,101044.79
2018-07-19T16:43:32.721Z,101047.18
2018-07-19T16:46:00.969Z,101042.05
2018-07-19T16:48:29.189Z,101041.98
2018-07-19T16:50:57.421Z,101037.25
2018-07-19T16:53:25.788Z,101040.14
2018-07-19T16:55:54.033Z,101040.19
2018-07-19T16:58:22.345Z,101035.86
2018-07-19T17:00:50.553Z,101042.71
2018-07-19T17:03:18.884Z,101038.84
2018-07-19T17:05:47.096Z,101034.77
2018-07-19T17:08:15.336Z,101031.86
2018-07-19T17:10:43.601Z,101034.66
2018-07-19T17:13:12.109Z,101032.80
2018-07-19T17:15:40.312Z,101028.04
2018-07-19T17:18:08.660Z,101027.92
2018-07-19T17:20:36.981Z,101029.36
2018-07-19T17:23:05.226Z,101024.86
2018-07-19T17:25:33.464Z,101028.81
2018-07-19T17:28:01.677Z,101024.64
2018-07-19T17:30:29.910Z,101020.27
2018-07-19T17:32:58.116Z,101023.22
2018-07-19T17:35:26.350Z,101025.11
2018-07-19T17:37:54.596Z,101016.78
2018-07-19T17:40:22.861Z,101021.38
2018-07-19T17:42:51.072Z,101017.81
2018-07-19T17:45:19.301Z,101013.73
2018-07-19T17:47:47.509Z,101015.27
2018-07-19T17:50:15.725Z,101011.56
2018-07-19T17:52:44.801Z,101015.98
2018-07-19T17:55:13.029Z,101020.73
2018-07-19T17:57:41.241Z,101018.35
2018-07-19T18:00:09.517Z,101020.37
2018-07-19T18:02:37.734Z,101017.50
2018-07-19T18:05:06.139Z,101020.11
2018-07-19T18:07:34.356Z,101015.91
2018-07-19T18:10:02.581Z,101012.42
2018-07-19T18:12:30.803Z,101009.50
2018-07-19T18:14:59.016Z,101006.64
2018-07-19T18:17:27.233Z,101005.19
2018-07-19T18:19:55.444Z,101011.83
2018-07-19T18:22:23.679Z,101013.64
2018-07-19T18:24:51.881Z,101011.58
2018-07-19T18:27:20.104Z,101014.57
2018-07-19T18:29:48.322Z,101013.10
2018-07-19T18:32:16.536Z,101011.00
2018-07-19T18:34:44.750Z,101011.15
2018-07-19T18:37:12.977Z,101008.32
2018-07-19T18:39:41.242Z,101007.80
2018-07-19T18:42:09.527Z,101005.80
2018-07-19T18:44:37.747Z,101010.53
2018-07-19T18:47:06.099Z,101009.43
2018-07-19T18:49:34.325Z,101011.38
2018-07-19T18:52:02.549Z,101015.18
2018-07-19T18:54:30.776Z,101013.70
2018-07-19T18:56:58.977Z,101014.06
2018-07-19T18:59:27.193Z,101013.25
2018-07-19T19:01:55.414Z,101009.24
2018-07-19T19:04:23.637Z,101014.75
2018-07-19T19:06:51.850Z,101014.20
2018-07-19T19:09:20.056Z,101020.44
2018-07-19T19:11:48.294Z,101014.95
2018-07-19T19:14:16.500Z,101019.09
2018-07-19T19:16:44.744Z,101002.58
2018-07-19T19:19:12.961Z,101022.97
2018-07-19T19:21:41.172Z,101014.97
2018-07-19T19:24:09.390Z,101026.63
2018-07-19T19:26:37.628Z,101022.30
2018-07-19T19:29:05.856Z,101025.65
2018-07-19T19:31:34.057Z,101021.69
2018-07-19T19:34:02.272Z,101033.95
2018-07-19T19:36:30.573Z,101036.91
2018-07-19T19:38:58.789Z,101033.09
2018-07-19T19:41:27.621Z,101041.20
2018-07-19T19:43:55.830Z,101035.85
2018-07-19T19:46:24.087Z,101041.90
2018-07-19T19:48:52.288Z,101048.47
2018-07-19T19:51:20.501Z,101042.59
2018-07-19T19:53:48.733Z,101045.10
2018-07-19T19:56:16.948Z,101040.02
2018-07-19T19:58:45.225Z,101037.53
2018-07-19T20:01:13.380Z,101039.33
2018-07-19T20:03:41.604Z,101038.09
2018-07-19T20:06:09.852Z,101038.94
2018-07-19T20:08:38.085Z,101041.16
2018-07-19T20:11:06.330Z,101033.66
2018-07-19T20:13:34.536Z,101041.97
2018-07-19T20:16:02.778Z,101044.67
2018-07-19T20:18:31.032Z,101048.84
2018-07-19T20:20:59.239Z,101039.52
2018-07-19T20:23:27.477Z,101042.85
2018-07-19T20:25:56.161Z,101047.53
2018-07-19T20:28:24.372Z,101048.98
2018-07-19T20:30:52.604Z,101046.00
2018-07-19T20:33:20.836Z,101040.09
2018-07-19T20:35:49.091Z,101042.92
2018-07-19T20:38:17.313Z,101041.16
2018-07-19T20:40:45.520Z,101041.46
2018-07-19T20:43:13.765Z,101038.06
2018-07-19T20:45:41.993Z,101043.05
2018-07-19T20:48:10.309Z,101040.96
2018-07-19T20:50:38.525Z,101049.12
2018-07-19T20:53:06.736Z,101035.34
2018-07-19T20:55:35.039Z,101044.58
2018-07-19T20:58:03.273Z,101050.28
2018-07-19T21:00:31.497Z,101050.37
2018-07-19T21:02:59.710Z,101055.98
2018-07-19T21:05:27.961Z,101049.47
2018-07-19T21:07:56.280Z,101062.73
2018-07-19T21:10:24.507Z,101064.59
2018-07-19T21:12:52.729Z,101068.13
2018-07-19T21:15:20.972Z,101063.35
2018-07-19T21:17:49.223Z,101064.59
2018-07-19T21:20:17.460Z,101059.20
2018-07-19T21:22:45.695Z,101067.41
2018-07-19T21:25:13.946Z,101073.11
2018-07-19T21:27:42.205Z,101054.23
2018-07-19T21:30:10.505Z,101065.42
2018-07-19T21:32:38.708Z,101065.86
2018-07-19T21:35:06.945Z,101068.34
2018-07-19T21:37:35.144Z,101064.39
2018-07-19T21:40:03.400Z,101063.44
2018-07-19T21:42:31.612Z,101063.36
2018-07-19T21:44:59.844Z,101068.24
2018-07-19T21:47:28.056Z,101060.15
2018-07-19T21:49:56.314Z,101062.09
2018-07-19T21:52:24.545Z,101062.20
2018-07-19T21:54:52.773Z,101063.35
2018-07-19T21:57:20.980Z,101069.69
2018-07-19T21:59:49.209Z,101074.05
2018-07-19T22:02:17.448Z,101072.08
2018-07-19T22:04:45.649Z,101068.63
2018-07-19T22:07:13.865Z,101065.55
2018-07-19T22:09:42.126Z,101065.64
2018-07-19T22:12:10.413Z,101071.12
2018-07-19T22:14:38.664Z,101066.96
2018-07-19T22:17:06.897Z,101074.63
2018-07-19T22:19:35.103Z,101076.61
2018-07-19T22:22:03.340Z,101076.81
2018-07-19T22:24:31.572Z,101075.66
2018-07-19T22:26:59.809Z,101071.81
2018-07-19T22:29:28.049Z,101069.12
2018-07-19T22:31:56.245Z,101070.16
2018-07-19T22:34:24.463Z,101069.32
2018-07-19T22:36:52.679Z,101064.13
2018-07-19T22:39:20.900Z,101070.23
2018-07-19T22:41:49.097Z,101071.19
2018-07-19T22:44:17.356Z,101070.23
2018-07-19T22:46:45.634Z,101072.79
2018-07-19T22:49:13.880Z,101073.19
2018-07-19T22:51:42.108Z,101073.91
2018-07-19T22:54:10.320Z,101074.63
2018-07-19T22:56:38.537Z,101074.94
2018-07-19T22:59:06.824Z,101074.34
2018-07-19T23:01:35.045Z,101072.67
2018-07-19T23:04:03.269Z,101073.19
2018-07-19T23:06:31.513Z,101072.75
2018-07-19T23:08:59.737Z,101071.48
2018-07-19T23:11:27.989Z,101072.59
2018-07-19T23:13:56.251Z,101070.73
2018-07-19T23:16:24.571Z,101065.09
2018-07-19T23:18:52.772Z,101067.59
2018-07-19T23:21:21.000Z,101055.54
2018-07-19T23:23:49.205Z,101064.22
2018-07-19T23:26:17.415Z,101066.79
2018-07-19T23:28:45.648Z,101064.48
2018-07-19T23:31:13.876Z,101059.72
2018-07-19T23:33:42.134Z,101061.14
2018-07-19T23:36:16.741Z,101057.81
2018-07-19T23:38:55.258Z,101064.94
2018-07-19T23:41:28.476Z,101062.83
2018-07-19T23:44:02.205Z,101064.89
2018-07-19T23:46:34.372Z,101054.37
2018-07-19T23:49:06.946Z,101053.11
2018-07-19T23:51:36.351Z,101052.19
2018-07-19T23:54:04.587Z,101056.80
2018-07-19T23:56:33.240Z,101052.84
2018-07-19T23:59:01.461Z,101042.65
